sensor_id;sensor_type;location;lat;lon;timestamp;temperature;humidity
40589;DHT22;26297;49.450;6.640;2022-08-21T04:01:38;18.40;99.90
40589;DHT22;26297;49.450;6.640;2022-08-21T04:04:41;18.30;99.90
40589;DHT22;26297;49.450;6.640;2022-08-21T04:07:44;18.30;99.90
40589;DHT22;26297;49.450;6.640;2022-08-21T04:10:50;18.30;99.90
40589;DHT22;26297;49.450;6.640;2022-08-21T04:13:53;18.30;99.90
40589;DHT22;26297;49.450;6.640;2022-08-21T04:16:56;18.20;99.90
40589;DHT22;26297;49.450;6.640;2022-08-21T04:20:00;18.20;99.90
40589;DHT22;26297;49.450;6.640;2022-08-21T04:23:03;18.10;99.90
40589;DHT22;26297;49.450;6.640;2022-08-21T04:26:06;18.20;99.90
40589;DHT22;26297;49.450;6.640;2022-08-21T04:29:10;18.10;99.90
40589;DHT22;26297;49.450;6.640;2022-08-21T04:32:13;18.10;99.90
40589;DHT22;26297;49.450;6.640;2022-08-21T04:35:18;18.10;99.90
40589;DHT22;26297;49.450;6.640;2022-08-21T04:38:22;18.10;99.90
40589;DHT22;26297;49.450;6.640;2022-08-21T04:41:26;18.10;99.90
40589;DHT22;26297;49.450;6.640;2022-08-21T04:44:28;18.10;99.90
40589;DHT22;26297;49.450;6.640;2022-08-21T04:47:31;18.00;99.90
40589;DHT22;26297;49.450;6.640;2022-08-21T04:50:43;18.00;99.90
40589;DHT22;26297;49.450;6.640;2022-08-21T04:53:59;18.00;99.90
40589;DHT22;26297;49.450;6.640;2022-08-21T04:57:06;18.00;99.90
40589;DHT22;26297;49.450;6.640;2022-08-21T05:00:11;18.00;99.90
40589;DHT22;26297;49.450;6.640;2022-08-21T05:03:17;17.90;99.90
40589;DHT22;26297;49.450;6.640;2022-08-21T05:06:20;17.90;99.90
40589;DHT22;26297;49.450;6.640;2022-08-21T05:09:24;17.90;99.90
40589;DHT22;26297;49.450;6.640;2022-08-21T05:12:28;17.90;99.90
40589;DHT22;26297;49.450;6.640;2022-08-21T05:15:31;17.90;99.90
40589;DHT22;26297;49.450;6.640;2022-08-21T05:18:34;17.90;99.90
40589;DHT22;26297;49.450;6.640;2022-08-21T05:21:41;17.90;99.90
40589;DHT22;26297;49.450;6.640;2022-08-21T05:24:44;17.90;99.90
40589;DHT22;26297;49.450;6.640;2022-08-21T05:27:47;17.90;99.90
40589;DHT22;26297;49.450;6.640;2022-08-21T05:30:50;17.90;99.90
40589;DHT22;26297;49.450;6.640;2022-08-21T05:33:54;17.90;99.90
40589;DHT22;26297;49.450;6.640;2022-08-21T05:36:57;17.90;99.90
40589;DHT22;26297;49.450;6.640;2022-08-21T05:40:00;17.90;99.90
40589;DHT22;26297;49.450;6.640;2022-08-21T05:43:05;17.90;99.90
40589;DHT22;26297;49.450;6.640;2022-08-21T05:46:08;17.90;99.90
40589;DHT22;26297;49.450;6.640;2022-08-21T05:49:12;18.00;99.90
40589;DHT22;26297;49.450;6.640;2022-08-21T05:52:19;18.00;99.90
40589;DHT22;26297;49.450;6.640;2022-08-21T05:55:22;18.00;99.90
40589;DHT22;26297;49.450;6.640;2022-08-21T05:58:25;18.00;99.90
40589;DHT22;26297;49.450;6.640;2022-08-21T06:01:29;18.00;99.90
40589;DHT22;26297;49.450;6.640;2022-08-21T06:04:36;18.10;99.90
40589;DHT22;26297;49.450;6.640;2022-08-21T06:07:39;18.00;99.90
40589;DHT22;26297;49.450;6.640;2022-08-21T06:10:42;18.00;99.90
40589;DHT22;26297;49.450;6.640;2022-08-21T06:13:46;18.00;99.90
40589;DHT22;26297;49.450;6.640;2022-08-21T06:16:49;18.10;99.90
40589;DHT22;26297;49.450;6.640;2022-08-21T06:19:53;18.20;99.90
40589;DHT22;26297;49.450;6.640;2022-08-21T06:22:56;18.20;99.90
40589;DHT22;26297;49.450;6.640;2022-08-21T06:26:03;18.20;99.90
40589;DHT22;26297;49.450;6.640;2022-08-21T06:29:07;18.20;99.90
40589;DHT22;26297;49.450;6.640;2022-08-21T06:32:13;18.30;99.90
40589;DHT22;26297;49.450;6.640;2022-08-21T06:35:17;18.40;99.90
40589;DHT22;26297;49.450;6.640;2022-08-21T06:38:20;18.40;99.90
40589;DHT22;26297;49.450;6.640;2022-08-21T06:41:23;18.40;99.90
40589;DHT22;26297;49.450;6.640;2022-08-21T06:44:26;18.50;99.90
40589;DHT22;26297;49.450;6.640;2022-08-21T06:47:29;18.50;99.90
40589;DHT22;26297;49.450;6.640;2022-08-21T06:50:33;18.60;99.90
40589;DHT22;26297;49.450;6.640;2022-08-21T06:53:36;18.60;99.90
40589;DHT22;26297;49.450;6.640;2022-08-21T06:56:39;18.60;99.90
40589;DHT22;26297;49.450;6.640;2022-08-21T06:59:42;18.70;99.90
40589;DHT22;26297;49.450;6.640;2022-08-21T07:02:45;18.80;99.90
40589;DHT22;26297;49.450;6.640;2022-08-21T07:05:48;18.80;99.90
40589;DHT22;26297;49.450;6.640;2022-08-21T07:08:52;18.90;99.90
40589;DHT22;26297;49.450;6.640;2022-08-21T07:11:56;19.00;99.90
40589;DHT22;26297;49.450;6.640;2022-08-21T07:15:00;19.00;99.90
40589;DHT22;26297;49.450;6.640;2022-08-21T07:18:03;19.10;99.90
40589;DHT22;26297;49.450;6.640;2022-08-21T07:21:07;19.10;99.90
40589;DHT22;26297;49.450;6.640;2022-08-21T07:24:10;19.10;99.90
40589;DHT22;26297;49.450;6.640;2022-08-21T07:27:13;19.20;99.90
40589;DHT22;26297;49.450;6.640;2022-08-21T07:30:17;19.20;99.90
40589;DHT22;26297;49.450;6.640;2022-08-21T07:33:20;19.20;99.90
40589;DHT22;26297;49.450;6.640;2022-08-21T07:36:23;19.30;99.90
40589;DHT22;26297;49.450;6.640;2022-08-21T07:39:26;19.30;99.90
40589;DHT22;26297;49.450;6.640;2022-08-21T07:42:29;19.40;99.90
40589;DHT22;26297;49.450;6.640;2022-08-21T07:45:32;19.50;99.90
40589;DHT22;26297;49.450;6.640;2022-08-21T07:48:36;19.60;99.90
40589;DHT22;26297;49.450;6.640;2022-08-21T07:51:40;19.60;99.90
40589;DHT22;26297;49.450;6.640;2022-08-21T07:54:43;19.60;99.90
40589;DHT22;26297;49.450;6.640;2022-08-21T07:57:47;19.60;99.90
40589;DHT22;26297;49.450;6.640;2022-08-21T08:00:51;19.70;99.90
40589;DHT22;26297;49.450;6.640;2022-08-21T08:03:54;19.80;99.90
40589;DHT22;26297;49.450;6.640;2022-08-21T08:06:58;19.90;99.90
40589;DHT22;26297;49.450;6.640;2022-08-21T08:10:02;20.00;99.90
40589;DHT22;26297;49.450;6.640;2022-08-21T08:13:10;20.00;99.90
40589;DHT22;26297;49.450;6.640;2022-08-21T08:16:14;20.10;99.90
40589;DHT22;26297;49.450;6.640;2022-08-21T08:19:17;20.20;99.90
40589;DHT22;26297;49.450;6.640;2022-08-21T08:22:22;20.30;99.90
40589;DHT22;26297;49.450;6.640;2022-08-21T08:25:31;20.40;99.90
40589;DHT22;26297;49.450;6.640;2022-08-21T08:28:35;20.50;99.90
40589;DHT22;26297;49.450;6.640;2022-08-21T08:31:39;20.60;99.90
40589;DHT22;26297;49.450;6.640;2022-08-21T08:34:42;20.60;99.90
40589;DHT22;26297;49.450;6.640;2022-08-21T08:37:46;20.70;99.90
40589;DHT22;26297;49.450;6.640;2022-08-21T08:44:11;20.90;99.90
40589;DHT22;26297;49.450;6.640;2022-08-21T08:47:16;20.90;99.90
40589;DHT22;26297;49.450;6.640;2022-08-21T08:50:38;20.90;99.90
40589;DHT22;26297;49.450;6.640;2022-08-21T08:53:51;20.90;99.90
40589;DHT22;26297;49.450;6.640;2022-08-21T08:56:54;21.00;99.90
40589;DHT22;26297;49.450;6.640;2022-08-21T09:00:03;21.00;99.90
40589;DHT22;26297;49.450;6.640;2022-08-21T09:03:06;21.10;99.90
40589;DHT22;26297;49.450;6.640;2022-08-21T09:06:18;21.10;99.90
40589;DHT22;26297;49.450;6.640;2022-08-21T09:13:36;21.20;99.90
40589;DHT22;26297;49.450;6.640;2022-08-21T09:17:29;21.20;99.90
40589;DHT22;26297;49.450;6.640;2022-08-21T09:27:13;21.30;99.90
40589;DHT22;26297;49.450;6.640;2022-08-21T09:30:17;21.40;99.90
40589;DHT22;26297;49.450;6.640;2022-08-21T09:33:29;21.20;99.90
40589;DHT22;26297;49.450;6.640;2022-08-21T09:36:47;21.40;99.90
40589;DHT22;26297;49.450;6.640;2022-08-21T09:39:51;21.40;99.90
40589;DHT22;26297;49.450;6.640;2022-08-21T09:42:57;21.40;99.90
40589;DHT22;26297;49.450;6.640;2022-08-21T09:49:06;21.50;99.90
40589;DHT22;26297;49.450;6.640;2022-08-21T09:52:20;21.50;99.90
40589;DHT22;26297;49.450;6.640;2022-08-21T09:55:52;21.50;99.90
40589;DHT22;26297;49.450;6.640;2022-08-21T10:02:32;21.50;99.90
40589;DHT22;26297;49.450;6.640;2022-08-21T10:05:37;21.50;99.90
40589;DHT22;26297;49.450;6.640;2022-08-21T10:08:46;21.50;99.90
40589;DHT22;26297;49.450;6.640;2022-08-21T10:11:58;21.60;99.20
40589;DHT22;26297;49.450;6.640;2022-08-21T10:15:24;21.60;96.90
40589;DHT22;26297;49.450;6.640;2022-08-21T10:18:45;21.70;96.80
40589;DHT22;26297;49.450;6.640;2022-08-21T10:26:02;21.70;99.90
40589;DHT22;26297;49.450;6.640;2022-08-21T10:33:01;21.70;97.40
40589;DHT22;26297;49.450;6.640;2022-08-21T10:36:42;21.70;99.90
40589;DHT22;26297;49.450;6.640;2022-08-21T10:44:16;21.80;99.90
40589;DHT22;26297;49.450;6.640;2022-08-21T10:47:49;21.90;98.50
40589;DHT22;26297;49.450;6.640;2022-08-21T11:02:33;22.00;99.90
40589;DHT22;26297;49.450;6.640;2022-08-21T11:06:21;21.90;98.70
40589;DHT22;26297;49.450;6.640;2022-08-21T11:09:29;22.00;96.30
40589;DHT22;26297;49.450;6.640;2022-08-21T11:12:43;21.80;96.90
40589;DHT22;26297;49.450;6.640;2022-08-21T11:15:58;22.00;98.00
40589;DHT22;26297;49.450;6.640;2022-08-21T11:19:45;22.00;99.90
40589;DHT22;26297;49.450;6.640;2022-08-21T11:22:57;21.90;98.80
40589;DHT22;26297;49.450;6.640;2022-08-21T11:26:24;21.70;99.90
40589;DHT22;26297;49.450;6.640;2022-08-21T11:29:44;21.90;97.10
40589;DHT22;26297;49.450;6.640;2022-08-21T11:44:15;22.10;97.30
40589;DHT22;26297;49.450;6.640;2022-08-21T11:51:20;22.20;96.40
40589;DHT22;26297;49.450;6.640;2022-08-21T11:57:53;22.10;99.90
40589;DHT22;26297;49.450;6.640;2022-08-21T12:01:16;22.10;99.90
40589;DHT22;26297;49.450;6.640;2022-08-21T12:04:31;22.00;99.90
40589;DHT22;26297;49.450;6.640;2022-08-21T12:07:44;22.10;94.50
40589;DHT22;26297;49.450;6.640;2022-08-21T12:11:01;22.10;92.40
40589;DHT22;26297;49.450;6.640;2022-08-21T12:17:16;22.20;92.20
40589;DHT22;26297;49.450;6.640;2022-08-21T12:26:48;22.20;97.60
40589;DHT22;26297;49.450;6.640;2022-08-21T12:30:00;22.20;93.00
40589;DHT22;26297;49.450;6.640;2022-08-21T12:33:19;22.30;91.70
40589;DHT22;26297;49.450;6.640;2022-08-21T12:36:25;22.30;99.30
40589;DHT22;26297;49.450;6.640;2022-08-21T12:39:32;22.30;95.80
40589;DHT22;26297;49.450;6.640;2022-08-21T12:42:44;22.30;93.60
40589;DHT22;26297;49.450;6.640;2022-08-21T12:45:50;22.40;89.00
40589;DHT22;26297;49.450;6.640;2022-08-21T12:49:12;22.40;93.70
40589;DHT22;26297;49.450;6.640;2022-08-21T12:52:20;22.40;94.10
40589;DHT22;26297;49.450;6.640;2022-08-21T12:55:31;22.40;92.40
40589;DHT22;26297;49.450;6.640;2022-08-21T12:58:34;22.30;95.90
40589;DHT22;26297;49.450;6.640;2022-08-21T13:01:45;22.30;99.90
40589;DHT22;26297;49.450;6.640;2022-08-21T13:04:49;22.30;99.90
40589;DHT22;26297;49.450;6.640;2022-08-21T13:07:53;22.30;95.30
40589;DHT22;26297;49.450;6.640;2022-08-21T13:11:06;22.30;93.00
40589;DHT22;26297;49.450;6.640;2022-08-21T13:17:39;22.50;92.70
40589;DHT22;26297;49.450;6.640;2022-08-21T13:20:43;22.50;94.60
40589;DHT22;26297;49.450;6.640;2022-08-21T13:23:47;22.50;91.00
40589;DHT22;26297;49.450;6.640;2022-08-21T13:27:14;22.60;84.90
40589;DHT22;26297;49.450;6.640;2022-08-21T13:30:24;22.70;82.30
40589;DHT22;26297;49.450;6.640;2022-08-21T13:33:33;22.30;78.90
40589;DHT22;26297;49.450;6.640;2022-08-21T13:36:51;22.80;79.40
40589;DHT22;26297;49.450;6.640;2022-08-21T13:40:03;22.90;80.00
40589;DHT22;26297;49.450;6.640;2022-08-21T13:44:00;22.80;92.00
40589;DHT22;26297;49.450;6.640;2022-08-21T13:47:13;22.90;83.70
40589;DHT22;26297;49.450;6.640;2022-08-21T13:50:23;22.40;85.20
40589;DHT22;26297;49.450;6.640;2022-08-21T13:53:44;23.10;88.60
40589;DHT22;26297;49.450;6.640;2022-08-21T13:57:30;22.90;98.90
40589;DHT22;26297;49.450;6.640;2022-08-21T14:00:47;22.90;90.30
40589;DHT22;26297;49.450;6.640;2022-08-21T14:07:27;22.90;82.30
40589;DHT22;26297;49.450;6.640;2022-08-21T14:10:41;22.90;83.20
40589;DHT22;26297;49.450;6.640;2022-08-21T14:17:01;23.00;78.10
40589;DHT22;26297;49.450;6.640;2022-08-21T14:20:09;23.10;79.50
40589;DHT22;26297;49.450;6.640;2022-08-21T14:23:29;23.10;83.10
40589;DHT22;26297;49.450;6.640;2022-08-21T14:26:35;22.80;84.50
40589;DHT22;26297;49.450;6.640;2022-08-21T14:29:42;23.00;78.20
40589;DHT22;26297;49.450;6.640;2022-08-21T14:32:47;23.30;91.10
40589;DHT22;26297;49.450;6.640;2022-08-21T14:39:44;22.70;90.80
40589;DHT22;26297;49.450;6.640;2022-08-21T14:43:07;22.80;83.60
40589;DHT22;26297;49.450;6.640;2022-08-21T14:46:28;22.80;84.30
40589;DHT22;26297;49.450;6.640;2022-08-21T14:49:35;23.00;77.00
40589;DHT22;26297;49.450;6.640;2022-08-21T14:52:43;23.00;75.80
40589;DHT22;26297;49.450;6.640;2022-08-21T14:55:50;23.00;74.00
40589;DHT22;26297;49.450;6.640;2022-08-21T14:59:09;23.00;90.20
40589;DHT22;26297;49.450;6.640;2022-08-21T15:02:12;23.00;86.90
40589;DHT22;26297;49.450;6.640;2022-08-21T15:05:16;23.00;94.60
40589;DHT22;26297;49.450;6.640;2022-08-21T15:08:20;22.80;92.20
40589;DHT22;26297;49.450;6.640;2022-08-21T15:11:24;22.70;94.00
40589;DHT22;26297;49.450;6.640;2022-08-21T15:14:30;22.70;98.40
40589;DHT22;26297;49.450;6.640;2022-08-21T15:17:36;22.60;93.70
40589;DHT22;26297;49.450;6.640;2022-08-21T15:20:49;22.60;92.40
40589;DHT22;26297;49.450;6.640;2022-08-21T15:23:52;22.60;96.30
40589;DHT22;26297;49.450;6.640;2022-08-21T15:26:59;22.70;99.90
40589;DHT22;26297;49.450;6.640;2022-08-21T15:30:04;22.50;99.90
40589;DHT22;26297;49.450;6.640;2022-08-21T15:33:07;22.50;97.40
40589;DHT22;26297;49.450;6.640;2022-08-21T15:36:11;22.50;99.90
40589;DHT22;26297;49.450;6.640;2022-08-21T15:39:14;22.50;99.90
40589;DHT22;26297;49.450;6.640;2022-08-21T15:42:18;22.40;99.90
40589;DHT22;26297;49.450;6.640;2022-08-21T15:45:21;22.40;99.90
40589;DHT22;26297;49.450;6.640;2022-08-21T15:48:25;22.40;99.90
40589;DHT22;26297;49.450;6.640;2022-08-21T15:51:28;22.40;99.90
40589;DHT22;26297;49.450;6.640;2022-08-21T15:54:31;22.40;99.90
40589;DHT22;26297;49.450;6.640;2022-08-21T15:57:35;22.40;99.90
40589;DHT22;26297;49.450;6.640;2022-08-21T16:00:38;22.30;99.90
40589;DHT22;26297;49.450;6.640;2022-08-21T16:03:42;22.30;99.90
40589;DHT22;26297;49.450;6.640;2022-08-21T16:06:49;22.40;99.90
40589;DHT22;26297;49.450;6.640;2022-08-21T16:10:17;22.40;99.90
40589;DHT22;26297;49.450;6.640;2022-08-21T16:13:27;22.50;99.90
40589;DHT22;26297;49.450;6.640;2022-08-21T16:16:34;22.40;99.90
40589;DHT22;26297;49.450;6.640;2022-08-21T16:19:44;22.50;99.90
40589;DHT22;26297;49.450;6.640;2022-08-21T16:22:47;22.50;97.30
40589;DHT22;26297;49.450;6.640;2022-08-21T16:25:54;22.50;99.10
40589;DHT22;26297;49.450;6.640;2022-08-21T16:28:59;22.50;96.20
40589;DHT22;26297;49.450;6.640;2022-08-21T16:32:13;22.60;97.60
40589;DHT22;26297;49.450;6.640;2022-08-21T16:35:19;22.70;96.60
40589;DHT22;26297;49.450;6.640;2022-08-21T16:38:23;22.70;96.30
40589;DHT22;26297;49.450;6.640;2022-08-21T16:41:32;22.60;94.00
40589;DHT22;26297;49.450;6.640;2022-08-21T16:44:36;22.70;93.80
40589;DHT22;26297;49.450;6.640;2022-08-21T16:47:57;22.60;99.90
40589;DHT22;26297;49.450;6.640;2022-08-21T16:51:10;22.60;99.90
40589;DHT22;26297;49.450;6.640;2022-08-21T16:54:48;22.50;99.90
40589;DHT22;26297;49.450;6.640;2022-08-21T17:01:32;22.40;99.90
40589;DHT22;26297;49.450;6.640;2022-08-21T17:04:35;22.40;99.90
40589;DHT22;26297;49.450;6.640;2022-08-21T17:07:38;22.40;99.90
40589;DHT22;26297;49.450;6.640;2022-08-21T17:10:45;22.40;99.90
40589;DHT22;26297;49.450;6.640;2022-08-21T17:13:49;22.40;99.90
40589;DHT22;26297;49.450;6.640;2022-08-21T17:16:54;22.40;99.90
40589;DHT22;26297;49.450;6.640;2022-08-21T17:19:58;22.40;99.90
40589;DHT22;26297;49.450;6.640;2022-08-21T17:23:01;22.40;99.90
40589;DHT22;26297;49.450;6.640;2022-08-21T17:26:04;22.50;99.90
40589;DHT22;26297;49.450;6.640;2022-08-21T17:29:09;22.50;99.90
40589;DHT22;26297;49.450;6.640;2022-08-21T17:32:15;22.40;99.90
40589;DHT22;26297;49.450;6.640;2022-08-21T17:35:20;22.40;99.90
40589;DHT22;26297;49.450;6.640;2022-08-21T17:38:23;22.40;99.90
40589;DHT22;26297;49.450;6.640;2022-08-21T17:41:27;22.30;99.90
40589;DHT22;26297;49.450;6.640;2022-08-21T17:44:31;22.30;98.50
40589;DHT22;26297;49.450;6.640;2022-08-21T17:47:34;22.20;99.90
40589;DHT22;26297;49.450;6.640;2022-08-21T17:50:37;22.20;99.90
40589;DHT22;26297;49.450;6.640;2022-08-21T17:53:41;22.20;99.90
40589;DHT22;26297;49.450;6.640;2022-08-21T17:56:44;22.20;99.90
40589;DHT22;26297;49.450;6.640;2022-08-21T17:59:48;22.10;99.90
40589;DHT22;26297;49.450;6.640;2022-08-21T18:03:06;22.10;99.90
40589;DHT22;26297;49.450;6.640;2022-08-21T18:06:15;22.00;99.90
40589;DHT22;26297;49.450;6.640;2022-08-21T18:09:19;22.00;99.90
40589;DHT22;26297;49.450;6.640;2022-08-21T18:12:25;22.10;99.90
40589;DHT22;26297;49.450;6.640;2022-08-21T18:15:28;22.10;99.90
40589;DHT22;26297;49.450;6.640;2022-08-21T18:18:36;22.00;99.70
40589;DHT22;26297;49.450;6.640;2022-08-21T18:21:41;22.10;99.90
40589;DHT22;26297;49.450;6.640;2022-08-21T18:24:45;22.10;99.90
40589;DHT22;26297;49.450;6.640;2022-08-21T18:27:49;22.10;99.90
40589;DHT22;26297;49.450;6.640;2022-08-21T18:31:06;22.10;99.90
40589;DHT22;26297;49.450;6.640;2022-08-21T18:34:30;22.20;99.90
40589;DHT22;26297;49.450;6.640;2022-08-21T18:37:36;22.30;99.90
40589;DHT22;26297;49.450;6.640;2022-08-21T18:40:44;22.30;99.90
40589;DHT22;26297;49.450;6.640;2022-08-21T18:43:47;22.30;99.90
40589;DHT22;26297;49.450;6.640;2022-08-21T18:46:55;22.30;99.90
40589;DHT22;26297;49.450;6.640;2022-08-21T18:49:59;22.30;99.90
40589;DHT22;26297;49.450;6.640;2022-08-21T18:53:04;22.30;99.90
40589;DHT22;26297;49.450;6.640;2022-08-21T18:56:10;22.20;99.90
40589;DHT22;26297;49.450;6.640;2022-08-21T18:59:14;22.40;99.90
40589;DHT22;26297;49.450;6.640;2022-08-21T19:02:42;22.20;99.90
40589;DHT22;26297;49.450;6.640;2022-08-21T19:05:48;22.20;99.90
40589;DHT22;26297;49.450;6.640;2022-08-21T19:08:51;22.20;99.90
40589;DHT22;26297;49.450;6.640;2022-08-21T19:11:54;22.20;99.90
40589;DHT22;26297;49.450;6.640;2022-08-21T19:14:58;22.20;99.90
40589;DHT22;26297;49.450;6.640;2022-08-21T19:18:02;22.20;99.90
40589;DHT22;26297;49.450;6.640;2022-08-21T19:21:15;22.20;99.90
40589;DHT22;26297;49.450;6.640;2022-08-21T19:24:22;22.20;99.90
40589;DHT22;26297;49.450;6.640;2022-08-21T19:27:26;22.20;99.90
40589;DHT22;26297;49.450;6.640;2022-08-21T19:30:29;22.10;99.90
40589;DHT22;26297;49.450;6.640;2022-08-21T19:33:40;22.10;99.90
40589;DHT22;26297;49.450;6.640;2022-08-21T19:36:57;22.20;99.90
40589;DHT22;26297;49.450;6.640;2022-08-21T19:43:52;22.20;99.90
40589;DHT22;26297;49.450;6.640;2022-08-21T19:47:10;22.10;99.90
40589;DHT22;26297;49.450;6.640;2022-08-21T19:50:16;22.20;99.90
40589;DHT22;26297;49.450;6.640;2022-08-21T19:53:22;22.10;99.90
40589;DHT22;26297;49.450;6.640;2022-08-21T19:56:30;22.10;99.90
40589;DHT22;26297;49.450;6.640;2022-08-21T19:59:39;22.10;99.90
40589;DHT22;26297;49.450;6.640;2022-08-21T20:02:46;22.10;99.90
40589;DHT22;26297;49.450;6.640;2022-08-21T20:06:19;21.90;99.90
40589;DHT22;26297;49.450;6.640;2022-08-21T20:09:43;22.10;99.90
40589;DHT22;26297;49.450;6.640;2022-08-21T20:12:48;22.20;99.90
40589;DHT22;26297;49.450;6.640;2022-08-21T20:15:55;22.10;99.90
40589;DHT22;26297;49.450;6.640;2022-08-21T20:19:03;22.10;99.90
40589;DHT22;26297;49.450;6.640;2022-08-21T20:22:07;22.10;99.90
40589;DHT22;26297;49.450;6.640;2022-08-21T20:25:13;22.10;99.90
40589;DHT22;26297;49.450;6.640;2022-08-21T20:28:17;22.00;99.90
40589;DHT22;26297;49.450;6.640;2022-08-21T20:31:22;22.00;99.90
40589;DHT22;26297;49.450;6.640;2022-08-21T20:34:26;22.00;99.90
40589;DHT22;26297;49.450;6.640;2022-08-21T20:37:29;22.00;99.90
40589;DHT22;26297;49.450;6.640;2022-08-21T20:40:33;22.10;99.90
40589;DHT22;26297;49.450;6.640;2022-08-21T20:43:39;22.10;99.90
40589;DHT22;26297;49.450;6.640;2022-08-21T20:46:43;22.10;99.90
40589;DHT22;26297;49.450;6.640;2022-08-21T20:49:52;22.00;99.90
40589;DHT22;26297;49.450;6.640;2022-08-21T20:53:04;22.10;99.90
40589;DHT22;26297;49.450;6.640;2022-08-21T20:56:28;22.00;99.90
40589;DHT22;26297;49.450;6.640;2022-08-21T21:02:45;22.10;99.90
40589;DHT22;26297;49.450;6.640;2022-08-21T21:06:08;22.10;99.90
40589;DHT22;26297;49.450;6.640;2022-08-21T21:09:16;22.00;99.90
40589;DHT22;26297;49.450;6.640;2022-08-21T21:12:29;22.00;99.90
